createdAt,value
2022-08-17T00:00:05.800Z,18.60
2022-08-17T00:02:32.910Z,18.60
2022-08-17T00:05:08.354Z,18.70
2022-08-17T00:07:35.326Z,18.60
2022-08-17T00:10:02.362Z,18.60
2022-08-17T00:12:42.907Z,18.60
2022-08-17T00:15:11.164Z,18.70
2022-08-17T00:17:38.241Z,18.70
2022-08-17T00:20:05.969Z,18.70
2022-08-17T00:22:36.319Z,18.70
2022-08-17T00:25:05.473Z,18.50
2022-08-17T00:27:32.584Z,18.40
2022-08-17T00:29:59.562Z,18.30
2022-08-17T00:33:15.571Z,18.20
2022-08-17T00:35:16.255Z,18.30
2022-08-17T00:37:43.266Z,18.30
2022-08-17T00:40:11.846Z,18.10
2022-08-17T00:42:39.182Z,18.20
2022-08-17T00:45:07.488Z,18.20
2022-08-17T00:47:34.423Z,18.30
2022-08-17T00:50:01.404Z,18.30
2022-08-17T00:52:33.145Z,18.30
2022-08-17T00:55:00.222Z,18.20
2022-08-17T00:57:31.302Z,18.30
2022-08-17T01:00:07.373Z,18.20
2022-08-17T01:02:50.887Z,18.10
2022-08-17T01:05:23.861Z,18.00
2022-08-17T01:07:52.571Z,18.00
2022-08-17T01:10:58.730Z,18.10
2022-08-17T01:13:13.618Z,17.90
2022-08-17T01:15:46.240Z,18.10
2022-08-17T01:18:14.408Z,17.90
2022-08-17T01:20:48.250Z,18.10
2022-08-17T01:23:20.646Z,18.20
2022-08-17T01:26:12.153Z,18.20
2022-08-17T01:28:54.709Z,17.70
2022-08-17T01:31:24.475Z,18.20
2022-08-17T01:33:51.550Z,18.00
2022-08-17T01:36:18.609Z,17.90
2022-08-17T01:38:46.505Z,20.00
2022-08-17T01:41:17.659Z,18.10
2022-08-17T01:44:03.830Z,17.80
2022-08-17T01:46:35.754Z,17.40
2022-08-17T01:49:07.190Z,18.20
2022-08-17T01:51:34.303Z,17.90
2022-08-17T01:54:03.322Z,18.10
2022-08-17T01:56:30.207Z,17.70
2022-08-17T01:58:57.395Z,17.70
2022-08-17T02:01:28.823Z,17.80
2022-08-17T02:04:00.396Z,17.10
2022-08-17T02:06:47.051Z,17.40
2022-08-17T02:09:25.542Z,16.80
2022-08-17T02:11:55.207Z,17.50
2022-08-17T02:14:26.871Z,17.10
2022-08-17T02:16:58.743Z,18.30
2022-08-17T02:22:30.044Z,17.50
2022-08-17T02:25:02.831Z,16.70
2022-08-17T02:27:31.731Z,17.40
2022-08-17T02:30:02.911Z,16.80
2022-08-17T02:32:33.381Z,16.80
2022-08-17T02:35:04.775Z,17.20
2022-08-17T02:37:43.879Z,17.10
2022-08-17T02:43:28.681Z,17.20
2022-08-17T02:45:58.523Z,17.20
2022-08-17T02:48:31.247Z,17.80
2022-08-17T02:51:01.598Z,17.00
2022-08-17T02:53:36.038Z,18.60
2022-08-17T02:56:06.080Z,16.80
2022-08-17T03:01:49.866Z,17.50
2022-08-17T03:04:29.498Z,16.10
2022-08-17T03:06:58.519Z,16.60
2022-08-17T03:09:25.837Z,16.80
2022-08-17T03:12:06.365Z,16.80
2022-08-17T03:18:05.516Z,17.60
2022-08-17T03:20:41.817Z,16.60
2022-08-17T03:26:29.790Z,14.80
2022-08-17T03:29:00.077Z,16.00
2022-08-17T03:31:29.311Z,17.00
2022-08-17T03:33:58.727Z,16.30
2022-08-17T03:36:26.664Z,16.40
2022-08-17T03:38:55.685Z,16.60
2022-08-17T03:41:31.549Z,15.80
2022-08-17T03:44:08.222Z,16.70
2022-08-17T03:50:01.965Z,16.00
2022-08-17T03:56:36.656Z,16.20
2022-08-17T03:59:25.837Z,16.20
2022-08-17T04:02:12.635Z,17.40
2022-08-17T04:18:15.705Z,16.00
2022-08-17T04:20:47.068Z,17.10
2022-08-17T04:23:52.398Z,16.10
2022-08-17T04:30:15.929Z,17.10
2022-08-17T04:33:17.966Z,17.80
2022-08-17T04:36:03.280Z,16.70
2022-08-17T04:39:04.466Z,16.80
2022-08-17T04:42:09.768Z,16.70
2022-08-17T04:45:02.268Z,17.70
2022-08-17T04:47:39.026Z,17.10
2022-08-17T04:50:20.590Z,15.00
2022-08-17T04:52:57.376Z,16.00
2022-08-17T04:59:08.485Z,16.10
2022-08-17T05:02:03.539Z,15.20
2022-08-17T05:04:42.182Z,17.50
2022-08-17T05:07:11.906Z,17.10
2022-08-17T05:09:40.855Z,18.10
2022-08-17T05:28:43.455Z,18.50
2022-08-17T05:31:23.150Z,18.00
2022-08-17T05:34:02.177Z,17.80
2022-08-17T05:36:43.542Z,17.80
2022-08-17T05:39:15.908Z,18.10
2022-08-17T05:41:44.174Z,18.00
2022-08-17T05:51:28.815Z,18.60
2022-08-17T05:54:24.407Z,18.50
2022-08-17T06:00:42.000Z,18.90
2022-08-17T06:03:15.164Z,18.70
2022-08-17T06:06:14.831Z,18.90
2022-08-17T06:09:00.677Z,19.60
2022-08-17T06:11:53.514Z,19.20
2022-08-17T06:14:33.113Z,19.30
2022-08-17T06:17:05.234Z,19.40
2022-08-17T06:19:37.493Z,19.30
2022-08-17T06:22:06.026Z,19.50
2022-08-17T06:24:56.848Z,19.50
2022-08-17T06:27:39.165Z,19.70
2022-08-17T06:30:16.093Z,19.80
2022-08-17T06:32:44.181Z,20.00
2022-08-17T06:35:31.808Z,20.00
2022-08-17T06:38:08.888Z,20.20
2022-08-17T06:41:05.982Z,20.30
2022-08-17T06:44:03.350Z,20.50
2022-08-17T06:46:41.017Z,20.60
2022-08-17T06:49:11.909Z,20.70
2022-08-17T06:51:44.627Z,20.80
2022-08-17T06:54:20.840Z,21.00
2022-08-17T06:56:57.596Z,21.20
2022-08-17T06:59:30.469Z,21.40
2022-08-17T07:03:02.634Z,21.40
2022-08-17T07:05:46.473Z,21.60
2022-08-17T07:08:38.648Z,21.70
2022-08-17T07:11:13.235Z,21.90
2022-08-17T07:13:49.263Z,22.10
2022-08-17T07:16:41.461Z,22.30
2022-08-17T07:19:10.777Z,22.40
2022-08-17T07:21:45.135Z,22.50
2022-08-17T07:24:30.728Z,22.70
2022-08-17T07:27:06.730Z,22.80
2022-08-17T07:29:39.513Z,23.00
2022-08-17T07:32:06.670Z,23.10
2022-08-17T07:34:58.051Z,23.20
2022-08-17T07:37:25.100Z,23.40
2022-08-17T07:40:15.261Z,23.50
2022-08-17T07:42:44.528Z,23.60
2022-08-17T07:45:33.687Z,23.80
2022-08-17T07:48:19.024Z,23.90
2022-08-17T07:50:50.758Z,24.00
2022-08-17T07:53:23.407Z,24.10
2022-08-17T07:55:51.298Z,24.30
2022-08-17T07:58:20.628Z,24.50
2022-08-17T08:01:02.218Z,24.70
2022-08-17T08:03:32.114Z,24.90
2022-08-17T08:06:07.527Z,25.20
2022-08-17T08:08:42.566Z,25.50
2022-08-17T08:14:33.739Z,25.90
2022-08-17T08:17:04.478Z,25.90
2022-08-17T08:19:33.489Z,26.30
2022-08-17T08:22:36.178Z,26.20
2022-08-17T08:25:14.491Z,26.50
2022-08-17T08:28:01.845Z,26.60
2022-08-17T08:30:30.075Z,26.60
2022-08-17T08:33:29.081Z,26.70
2022-08-17T08:36:57.064Z,26.90
2022-08-17T08:39:50.751Z,27.00
2022-08-17T08:42:25.796Z,27.10
2022-08-17T08:45:55.603Z,27.40
2022-08-17T08:48:55.717Z,27.50
2022-08-17T08:51:37.605Z,27.70
2022-08-17T08:54:31.611Z,27.90
2022-08-17T09:00:14.930Z,28.00
2022-08-17T09:03:20.281Z,28.10
2022-08-17T09:06:33.270Z,28.30
2022-08-17T09:16:12.996Z,28.70
2022-08-17T09:19:00.150Z,28.80
2022-08-17T09:21:48.760Z,28.80
2022-08-17T09:24:26.783Z,28.70
2022-08-17T09:27:21.138Z,29.10
2022-08-17T09:29:54.216Z,29.00
2022-08-17T09:32:31.894Z,29.00
2022-08-17T09:35:06.126Z,29.20
2022-08-17T09:37:50.422Z,28.70
2022-08-17T09:40:39.096Z,29.50
2022-08-17T09:43:22.873Z,29.60
2022-08-17T09:45:52.723Z,29.80
2022-08-17T09:48:19.763Z,29.80
2022-08-17T09:51:06.546Z,29.90
2022-08-17T09:53:37.258Z,29.90
2022-08-17T09:56:28.874Z,30.00
2022-08-17T09:59:08.192Z,30.10
2022-08-17T10:01:40.652Z,30.20
2022-08-17T10:04:29.512Z,30.10
2022-08-17T10:07:27.528Z,30.30
2022-08-17T10:10:00.890Z,30.40
2022-08-17T10:12:46.407Z,30.60
2022-08-17T10:15:22.954Z,30.60
2022-08-17T10:18:13.667Z,30.70
2022-08-17T10:20:46.567Z,30.90
2022-08-17T10:23:36.794Z,30.90
2022-08-17T10:26:14.763Z,31.20
2022-08-17T10:28:54.102Z,31.20
2022-08-17T10:31:35.205Z,31.50
2022-08-17T10:34:03.019Z,31.50
2022-08-17T10:44:40.516Z,31.70
2022-08-17T10:47:11.657Z,31.90
2022-08-17T10:49:40.757Z,32.10
2022-08-17T10:52:27.931Z,32.00
2022-08-17T10:54:58.183Z,32.30
2022-08-17T10:57:34.946Z,32.60
2022-08-17T11:00:09.725Z,32.70
2022-08-17T11:02:49.908Z,32.90
2022-08-17T11:05:40.104Z,33.10
2022-08-17T11:08:45.113Z,32.80
2022-08-17T11:11:36.587Z,33.10
2022-08-17T11:14:48.480Z,33.50
2022-08-17T11:17:41.619Z,33.50
2022-08-17T11:20:20.518Z,33.50
2022-08-17T11:23:23.210Z,33.60
2022-08-17T11:25:58.207Z,33.70
2022-08-17T11:28:26.872Z,34.40
2022-08-17T11:31:23.975Z,34.20
2022-08-17T11:34:20.529Z,34.00
2022-08-17T11:37:23.304Z,34.50
2022-08-17T11:40:15.322Z,34.70
2022-08-17T11:43:39.511Z,34.80
2022-08-17T11:46:12.512Z,35.00
2022-08-17T12:26:36.870Z,37.50
2022-08-17T12:29:18.015Z,37.40
2022-08-17T12:31:59.628Z,37.10
2022-08-17T12:34:29.003Z,37.30
2022-08-17T12:37:00.216Z,37.70
2022-08-17T12:39:27.627Z,37.80
2022-08-17T12:42:02.693Z,38.00
2022-08-17T12:44:36.184Z,38.40
2022-08-17T12:47:22.674Z,38.30
2022-08-17T12:53:20.178Z,38.40
2022-08-17T12:55:47.837Z,38.30
2022-08-17T13:05:36.287Z,38.80
2022-08-17T13:08:21.160Z,39.20
2022-08-17T13:13:50.918Z,38.90
2022-08-17T13:16:23.211Z,38.90
2022-08-17T13:18:55.113Z,39.20
2022-08-17T13:21:27.073Z,39.30
2022-08-17T13:24:01.457Z,39.40
2022-08-17T13:26:37.558Z,39.30
2022-08-17T13:29:24.107Z,38.70
2022-08-17T13:42:51.448Z,31.70
2022-08-17T13:48:21.912Z,31.10
2022-08-17T13:50:54.999Z,31.40
2022-08-17T13:53:33.241Z,32.50
2022-08-17T13:56:37.606Z,33.20
2022-08-17T13:59:01.260Z,33.60
2022-08-17T14:01:53.386Z,33.90
2022-08-17T14:04:25.719Z,34.20
2022-08-17T14:07:10.695Z,34.30
2022-08-17T14:09:43.883Z,34.10
2022-08-17T14:12:12.617Z,34.30
2022-08-17T14:14:39.714Z,34.30
2022-08-17T14:17:08.179Z,34.70
2022-08-17T14:19:36.378Z,34.90
2022-08-17T14:22:03.948Z,35.10
2022-08-17T14:27:22.501Z,35.10
2022-08-17T14:29:49.559Z,35.10
2022-08-17T14:47:37.283Z,32.60
2022-08-17T14:50:06.347Z,32.50
2022-08-17T14:52:36.058Z,32.80
2022-08-17T14:55:04.088Z,33.20
2022-08-17T15:03:47.220Z,34.00
2022-08-17T15:06:16.341Z,32.80
2022-08-17T15:08:43.670Z,32.30
2022-08-17T15:11:14.338Z,32.10
2022-08-17T15:13:52.958Z,31.90
2022-08-17T15:16:20.662Z,31.70
2022-08-17T15:18:48.447Z,31.50
2022-08-17T15:21:16.046Z,31.30
2022-08-17T15:23:43.102Z,31.10
2022-08-17T15:26:11.148Z,30.90
2022-08-17T15:28:38.134Z,30.80
2022-08-17T15:31:06.779Z,30.50
2022-08-17T15:33:34.181Z,30.50
2022-08-17T15:36:03.092Z,30.40
2022-08-17T15:38:30.892Z,30.30
2022-08-17T15:40:58.668Z,30.30
2022-08-17T15:43:28.307Z,30.30
2022-08-17T15:46:00.912Z,30.20
2022-08-17T15:48:41.567Z,30.10
2022-08-17T15:51:19.606Z,30.00
2022-08-17T15:53:48.824Z,30.00
2022-08-17T15:56:16.423Z,29.80
2022-08-17T15:58:43.976Z,29.70
2022-08-17T16:01:16.751Z,29.60
2022-08-17T16:04:04.502Z,29.50
2022-08-17T16:06:33.596Z,29.40
2022-08-17T16:09:00.787Z,29.30
2022-08-17T16:11:27.783Z,29.30
2022-08-17T16:13:56.171Z,29.10
2022-08-17T16:16:23.884Z,29.00
2022-08-17T16:18:53.564Z,29.00
2022-08-17T16:21:27.222Z,28.80
2022-08-17T16:24:05.810Z,28.70
2022-08-17T16:26:40.577Z,28.60
2022-08-17T16:29:07.660Z,28.50
2022-08-17T16:31:36.202Z,28.50
2022-08-17T16:41:48.076Z,28.70
2022-08-17T16:44:16.729Z,28.80
2022-08-17T16:46:45.410Z,28.90
2022-08-17T16:49:27.627Z,29.00
2022-08-17T16:52:03.154Z,29.20
2022-08-17T16:54:30.510Z,29.30
2022-08-17T16:56:57.740Z,29.60
2022-08-17T16:59:30.806Z,29.80
2022-08-17T17:28:08.881Z,27.30
2022-08-17T17:30:49.396Z,27.10
2022-08-17T17:48:42.342Z,26.20
2022-08-17T17:52:06.281Z,25.80
2022-08-17T17:54:34.211Z,25.60
2022-08-17T18:27:02.411Z,24.60
2022-08-17T18:29:43.144Z,24.60
2022-08-17T18:32:23.950Z,24.50
2022-08-17T18:35:10.614Z,24.30
2022-08-17T18:37:47.705Z,24.20
2022-08-17T18:40:20.674Z,24.10
2022-08-17T18:43:04.762Z,23.90
2022-08-17T18:45:52.178Z,23.80
2022-08-17T18:48:25.663Z,23.60
2022-08-17T18:50:54.468Z,23.60
2022-08-17T18:53:33.182Z,23.50
2022-08-17T18:56:32.441Z,23.50
2022-08-17T19:18:15.100Z,23.00
2022-08-17T19:21:02.994Z,22.90
2022-08-17T19:25:03.743Z,23.00
2022-08-17T19:28:03.157Z,22.90
2022-08-17T19:30:30.695Z,22.60
2022-08-17T19:32:58.579Z,22.40
2022-08-17T19:35:30.827Z,22.40
2022-08-17T19:38:00.710Z,22.40
2022-08-17T19:40:54.805Z,22.40
2022-08-17T19:43:48.142Z,22.40
2022-08-17T19:46:26.330Z,22.30
2022-08-17T19:48:57.232Z,22.10
2022-08-17T19:51:41.093Z,22.00
2022-08-17T19:54:24.038Z,21.90
2022-08-17T19:57:09.072Z,21.80
2022-08-17T19:59:59.835Z,21.70
2022-08-17T20:02:33.310Z,21.70
2022-08-17T20:05:03.591Z,21.60
2022-08-17T20:07:44.751Z,21.60
2022-08-17T20:10:19.714Z,21.60
2022-08-17T20:12:46.951Z,21.50
2022-08-17T20:15:22.512Z,21.40
2022-08-17T20:17:49.676Z,21.30
2022-08-17T20:20:38.563Z,21.30
2022-08-17T20:23:19.961Z,21.30
2022-08-17T20:26:04.025Z,21.40
2022-08-17T20:28:35.282Z,21.40
2022-08-17T20:31:02.802Z,21.30
2022-08-17T20:33:34.415Z,21.20
2022-08-17T20:36:19.336Z,21.20
2022-08-17T20:38:57.006Z,21.20
2022-08-17T20:41:25.887Z,21.10
2022-08-17T20:43:59.251Z,21.10
2022-08-17T20:46:38.729Z,21.20
2022-08-17T20:49:09.083Z,21.10
2022-08-17T20:52:01.942Z,21.00
2022-08-17T20:54:36.991Z,21.10
2022-08-17T20:57:06.769Z,21.30
2022-08-17T20:59:45.046Z,21.30
2022-08-17T21:02:18.457Z,21.50
2022-08-17T21:04:54.804Z,21.10
2022-08-17T21:07:43.682Z,21.20
2022-08-17T21:10:11.088Z,21.10
2022-08-17T21:12:43.005Z,21.00
2022-08-17T21:15:31.835Z,20.80
2022-08-17T21:18:19.154Z,20.90
2022-08-17T21:21:18.182Z,20.80
2022-08-17T21:23:57.428Z,20.60
2022-08-17T21:26:55.694Z,20.60
2022-08-17T21:29:31.889Z,20.40
2022-08-17T21:32:06.318Z,20.40
2022-08-17T23:40:47.261Z,20.20
2022-08-17T23:43:17.570Z,19.00
